Time;durP1;ratioP1;P1;durP2;ratioP2;P2;SDS_P1;SDS_P2;PMS_P1;PMS_P2;Temp;Humidity;BMP_temperature;BMP_pressure;BME280_temperature;BME280_humidity;BME280_pressure;Samples;Min_cycle;Max_cycle;Signal;HPM_P1;HPM_P2
2023/02/19 00:01:30;;;;;;;;;;;;;;;13.65;38.94;99829.28;5091791;28;19920;-43
2023/02/19 00:03:57;;;;;;;;;;;;;;;13.27;39.96;99832.09;5077289;28;19912;-42
2023/02/19 00:06:23;;;;;;;;;;;;;;;13.25;39.64;99824.28;5071063;28;19951;-42
2023/02/19 00:08:49;;;;;;;;;;;;;;;13.29;39.87;99817.47;5071081;28;19913;-42
2023/02/19 00:11:16;;;;;;;;;;;;;;;13.74;39.00;99818.28;5071208;28;20332;-42
2023/02/19 00:13:43;;;;;;;;;;;;;;;13.72;38.69;99813.16;5070998;28;20292;-43
2023/02/19 00:16:09;;;;;;;;;;;;;;;13.72;38.96;99823.03;5071019;28;19935;-42
2023/02/19 00:18:35;;;;;;;;;;;;;;;13.41;39.49;99817.56;5070960;28;20008;-42
2023/02/19 00:21:01;;;;;;;;;;;;;;;13.46;39.39;99807.06;5070739;28;20337;-42
2023/02/19 00:23:26;;;;;;;;;;;;;;;14.05;38.48;99811.94;5070472;28;19927;-42
2023/02/19 00:25:52;;;;;;;;;;;;;;;13.82;38.55;99802.78;5070822;28;20008;-42
2023/02/19 00:28:17;;;;;;;;;;;;;;;13.38;39.56;99801.97;5070994;28;20394;-42
2023/02/19 00:30:43;;;;;;;;;;;;;;;13.35;39.66;99814.97;5071268;28;20019;-42
2023/02/19 00:33:08;;;;;;;;;;;;;;;13.33;39.64;99803.66;5071044;28;19913;-42
2023/02/19 00:35:34;;;;;;;;;;;;;;;14.11;38.17;99800.38;5071027;28;20000;-42
2023/02/19 00:37:59;;;;;;;;;;;;;;;13.97;38.42;99791.66;5070777;28;19990;-42
2023/02/19 00:40:25;;;;;;;;;;;;;;;13.56;39.25;99787.81;5070618;28;19960;-42
2023/02/19 00:42:50;;;;;;;;;;;;;;;13.36;39.67;99788.00;5070965;28;19928;-42
2023/02/19 00:45:16;;;;;;;;;;;;;;;12.89;40.70;99782.25;5070665;28;19917;-43
2023/02/19 00:47:41;;;;;;;;;;;;;;;12.80;40.93;99787.03;5070496;28;19916;-42
2023/02/19 00:50:06;;;;;;;;;;;;;;;12.61;41.23;99778.13;5070596;28;20288;-43
2023/02/19 00:52:32;;;;;;;;;;;;;;;12.75;41.09;99773.50;5070534;28;19952;-42
2023/02/19 00:54:57;;;;;;;;;;;;;;;12.68;41.49;99780.75;5070831;28;19919;-42
2023/02/19 00:57:22;;;;;;;;;;;;;;;12.56;41.59;99775.28;5070784;28;19912;-42
2023/02/19 00:59:47;;;;;;;;;;;;;;;12.57;41.11;99778.78;5070461;28;20246;-42
2023/02/19 01:02:13;;;;;;;;;;;;;;;12.49;41.80;99779.84;5070309;28;19962;-42
2023/02/19 01:04:38;;;;;;;;;;;;;;;12.59;41.31;99776.72;5070390;28;20380;-42
2023/02/19 01:07:03;;;;;;;;;;;;;;;12.51;41.68;99780.47;5070435;28;19924;-42
2023/02/19 01:09:28;;;;;;;;;;;;;;;12.63;41.68;99783.25;5070355;28;20344;-42
2023/02/19 01:11:54;;;;;;;;;;;;;;;12.81;41.01;99779.81;5070190;28;19923;-42
2023/02/19 01:14:19;;;;;;;;;;;;;;;12.46;41.87;99765.06;5070434;28;20361;-42
2023/02/19 01:16:44;;;;;;;;;;;;;;;12.65;41.61;99763.31;5070274;28;19912;-42
2023/02/19 01:19:10;;;;;;;;;;;;;;;12.43;42.19;99764.69;5070329;28;19912;-42
2023/02/19 01:21:35;;;;;;;;;;;;;;;12.45;42.18;99763.47;5070543;28;20003;-42
2023/02/19 01:24:00;;;;;;;;;;;;;;;12.40;41.87;99760.59;5070028;28;19960;-42
2023/02/19 01:26:28;;;;;;;;;;;;;;;12.20;42.62;99774.03;5070264;28;19912;-42
2023/02/19 01:28:53;;;;;;;;;;;;;;;11.84;43.39;99777.25;5070570;28;20273;-42
2023/02/19 01:31:20;;;;;;;;;;;;;;;11.82;43.12;99774.81;5070208;28;19918;-42
2023/02/19 01:33:46;;;;;;;;;;;;;;;11.83;42.95;99780.97;5070188;28;19920;-42
2023/02/19 01:36:12;;;;;;;;;;;;;;;11.64;43.41;99780.81;5074262;28;19947;-42
2023/02/19 01:38:37;;;;;;;;;;;;;;;11.72;43.97;99787.75;5074026;28;19952;-43
2023/02/19 01:41:05;;;;;;;;;;;;;;;11.58;43.75;99776.31;5073663;28;20333;-41
2023/02/19 01:43:33;;;;;;;;;;;;;;;11.44;44.38;99759.56;5074081;28;20006;-42
2023/02/19 01:45:59;;;;;;;;;;;;;;;11.40;44.50;99771.63;5073899;28;19916;-42
2023/02/19 01:48:28;;;;;;;;;;;;;;;11.38;44.24;99768.34;5074159;28;20050;-43
2023/02/19 01:51:05;;;;;;;;;;;;;;;11.19;44.75;99759.38;5073744;28;19916;-42
2023/02/19 01:53:33;;;;;;;;;;;;;;;11.38;44.00;99770.22;5073610;28;19940;-42
2023/02/19 01:55:59;;;;;;;;;;;;;;;11.41;44.22;99761.81;5073696;28;19995;-43
2023/02/19 01:58:27;;;;;;;;;;;;;;;11.47;44.41;99752.97;5073690;28;19923;-42
2023/02/19 02:00:53;;;;;;;;;;;;;;;11.06;44.68;99752.22;5073622;28;19916;-42
2023/02/19 02:03:18;;;;;;;;;;;;;;;11.45;43.99;99750.50;5073395;28;19919;-41
2023/02/19 02:05:46;;;;;;;;;;;;;;;11.48;44.42;99751.94;5073620;28;19916;-42
2023/02/19 02:10:57;;;;;;;;;;;;;;;11.04;44.85;99769.41;5073645;28;19931;-42
2023/02/19 02:13:22;;;;;;;;;;;;;;;11.30;44.32;99769.41;5073276;28;20330;-42
2023/02/19 02:15:58;;;;;;;;;;;;;;;11.27;45.09;99761.00;5073454;28;19966;-42
2023/02/19 02:18:31;;;;;;;;;;;;;;;11.47;43.72;99764.44;5073422;28;19927;-42
2023/02/19 02:21:14;;;;;;;;;;;;;;;11.55;44.03;99766.06;5073917;28;19920;-42
2023/02/19 02:23:40;;;;;;;;;;;;;;;11.58;43.88;99760.34;5073911;28;20094;-43
2023/02/19 02:26:14;;;;;;;;;;;;;;;11.82;43.15;99760.66;5074137;28;19975;-42
2023/02/19 02:28:43;;;;;;;;;;;;;;;11.77;43.71;99765.81;5073943;28;19965;-42
2023/02/19 02:31:12;;;;;;;;;;;;;;;12.01;43.18;99773.09;5073582;28;19912;-41
2023/02/19 02:33:47;;;;;;;;;;;;;;;11.89;43.27;99786.28;5073765;28;19912;-42
2023/02/19 02:36:16;;;;;;;;;;;;;;;11.94;42.29;99788.34;5073990;28;19923;-42
2023/02/19 02:38:42;;;;;;;;;;;;;;;12.06;42.36;99775.97;5073726;28;19962;-42
2023/02/19 02:41:08;;;;;;;;;;;;;;;12.19;42.43;99783.09;5072901;28;19956;-42
2023/02/19 02:43:34;;;;;;;;;;;;;;;12.19;42.09;99784.94;5073828;28;20018;-42
2023/02/19 02:45:59;;;;;;;;;;;;;;;12.30;42.21;99781.63;5072076;28;19963;-43
2023/02/19 02:48:33;;;;;;;;;;;;;;;12.04;42.29;99786.03;5073490;28;19923;-42
2023/02/19 02:50:58;;;;;;;;;;;;;;;12.32;41.72;99779.53;5073422;28;19913;-42
2023/02/19 02:56:09;;;;;;;;;;;;;;;11.97;42.37;99773.75;5073281;28;19936;-42
2023/02/19 02:58:34;;;;;;;;;;;;;;;11.91;42.42;99783.41;5073633;28;19962;-42
2023/02/19 03:03:49;;;;;;;;;;;;;;;11.93;42.86;99800.84;5073398;28;19919;-42
2023/02/19 03:06:16;;;;;;;;;;;;;;;11.83;42.75;99799.63;5073343;28;19917;-42
2023/02/19 03:08:47;;;;;;;;;;;;;;;11.67;43.51;99806.22;5073209;28;19912;-42
2023/02/19 03:19:34;;;;;;;;;;;;;;;11.12;44.84;99795.88;5073190;28;20371;-42
2023/02/19 03:22:09;;;;;;;;;;;;;;;11.42;44.01;99796.22;5072674;28;19916;-42
2023/02/19 03:27:20;;;;;;;;;;;;;;;11.68;43.60;99803.34;5073161;28;19919;-42
2023/02/19 03:29:47;;;;;;;;;;;;;;;11.54;43.99;99810.56;5072780;28;20260;-42
2023/02/19 03:32:17;;;;;;;;;;;;;;;11.45;44.59;99806.47;5072772;28;19913;-42
2023/02/19 03:34:47;;;;;;;;;;;;;;;11.52;43.94;99803.81;5072637;28;19920;-42
2023/02/19 03:37:15;;;;;;;;;;;;;;;11.50;43.54;99805.88;5072776;28;19932;-42
2023/02/19 03:39:43;;;;;;;;;;;;;;;11.62;43.50;99804.19;5072368;28;19920;-42
2023/02/19 03:42:31;;;;;;;;;;;;;;;11.73;43.42;99806.22;5072632;28;20011;-42
2023/02/19 03:44:57;;;;;;;;;;;;;;;11.49;44.18;99809.53;5072182;28;19948;-42
2023/02/19 03:47:24;;;;;;;;;;;;;;;11.49;43.70;99826.34;5072411;28;19970;-42
2023/02/19 03:50:07;;;;;;;;;;;;;;;11.76;42.77;99818.28;5072674;28;19912;-42
2023/02/19 03:52:33;;;;;;;;;;;;;;;11.79;43.20;99825.06;5071078;28;20264;-42
2023/02/19 03:55:36;;;;;;;;;;;;;;;11.59;43.49;99819.78;5072034;28;19912;-42
2023/02/19 03:58:10;;;;;;;;;;;;;;;11.78;43.15;99823.44;5069058;28;20101;-42
2023/02/19 04:00:52;;;;;;;;;;;;;;;11.82;42.70;99816.63;5069749;28;19916;-42
2023/02/19 04:03:29;;;;;;;;;;;;;;;11.86;43.22;99829.38;5071071;28;19920;-42
2023/02/19 04:05:58;;;;;;;;;;;;;;;11.88;42.40;99831.78;5071875;28;19917;-42
2023/02/19 04:08:25;;;;;;;;;;;;;;;12.13;41.91;99832.78;5072162;28;20013;-41
2023/02/19 04:10:52;;;;;;;;;;;;;;;12.12;41.96;99839.13;5071694;28;19979;-42
2023/02/19 04:13:29;;;;;;;;;;;;;;;12.06;42.37;99842.66;5071640;28;20026;-41
2023/02/19 04:15:56;;;;;;;;;;;;;;;12.39;41.24;99847.03;5071656;28;19951;-42
2023/02/19 04:18:24;;;;;;;;;;;;;;;12.26;41.26;99847.06;5071527;28;19912;-42
2023/02/19 04:20:49;;;;;;;;;;;;;;;12.21;41.54;99861.06;5071426;28;19916;-42
2023/02/19 04:23:17;;;;;;;;;;;;;;;12.23;42.11;99867.00;5071373;28;20369;-41
2023/02/19 04:25:44;;;;;;;;;;;;;;;12.33;41.66;99863.88;5070802;28;19944;-42
2023/02/19 04:28:12;;;;;;;;;;;;;;;12.33;41.65;99867.38;5070774;28;19919;-42
2023/02/19 04:30:37;;;;;;;;;;;;;;;12.25;41.14;99864.94;5070722;28;20037;-42
2023/02/19 04:33:02;;;;;;;;;;;;;;;12.15;41.89;99867.25;5070904;28;19912;-42
2023/02/19 04:35:27;;;;;;;;;;;;;;;12.39;41.23;99867.56;5070792;28;20395;-42
2023/02/19 04:37:53;;;;;;;;;;;;;;;12.16;41.46;99863.53;5070568;28;19989;-41
2023/02/19 04:40:18;;;;;;;;;;;;;;;12.17;41.73;99870.53;5070650;28;19924;-43
2023/02/19 04:42:43;;;;;;;;;;;;;;;12.15;41.88;99861.91;5070995;28;20650;-42
2023/02/19 04:45:09;;;;;;;;;;;;;;;12.07;41.73;99865.63;5070498;28;19927;-42
2023/02/19 04:47:34;;;;;;;;;;;;;;;12.22;41.74;99865.38;5070668;28;19939;-42
2023/02/19 04:49:59;;;;;;;;;;;;;;;12.39;40.94;99867.56;5070694;28;20356;-42
2023/02/19 04:52:24;;;;;;;;;;;;;;;12.35;41.19;99871.69;5070394;28;19912;-42
2023/02/19 04:54:50;;;;;;;;;;;;;;;12.20;41.41;99870.09;5070300;28;20368;-42
2023/02/19 04:57:15;;;;;;;;;;;;;;;12.44;40.92;99870.41;5070278;28;20375;-42
2023/02/19 04:59:40;;;;;;;;;;;;;;;12.30;41.73;99889.16;5070073;28;20020;-42
2023/02/19 05:02:05;;;;;;;;;;;;;;;12.20;41.78;99888.75;5070187;28;19912;-41
2023/02/19 05:04:31;;;;;;;;;;;;;;;12.13;41.97;99886.13;5070401;28;19969;-42
2023/02/19 05:06:56;;;;;;;;;;;;;;;12.02;42.42;99891.31;5070308;28;19996;-41
2023/02/19 05:09:21;;;;;;;;;;;;;;;12.03;42.25;99890.25;5069241;28;19920;-42
2023/02/19 05:11:47;;;;;;;;;;;;;;;11.96;42.45;99884.94;5070387;28;19919;-42
2023/02/19 05:14:12;;;;;;;;;;;;;;;12.22;42.07;99883.22;5069997;28;19913;-42
2023/02/19 05:16:37;;;;;;;;;;;;;;;12.16;41.98;99882.22;5070231;28;19913;-42
2023/02/19 05:19:03;;;;;;;;;;;;;;;12.04;41.95;99883.91;5071667;28;19917;-42
2023/02/19 05:21:28;;;;;;;;;;;;;;;12.08;42.38;99887.78;5090230;28;19916;-43
2023/02/19 05:23:53;;;;;;;;;;;;;;;12.06;41.49;99876.50;5024162;28;1861422;-42
2023/02/19 05:26:20;;;;;;;;;;;;;;;12.11;41.38;99882.84;5090869;28;19923;-42
2023/02/19 05:28:49;;;;;;;;;;;;;;;12.28;41.09;99887.72;5090850;28;20030;-42
2023/02/19 05:31:14;;;;;;;;;;;;;;;12.56;40.77;99883.91;5090756;28;19927;-42
2023/02/19 05:33:41;;;;;;;;;;;;;;;12.62;40.58;99888.38;5091162;28;19987;-42
2023/02/19 05:36:08;;;;;;;;;;;;;;;12.80;40.47;99899.19;5090694;28;19919;-42
2023/02/19 05:38:34;;;;;;;;;;;;;;;12.86;39.85;99905.53;5090791;28;19920;-42
2023/02/19 05:41:09;;;;;;;;;;;;;;;13.08;39.95;99914.03;5090655;28;19916;-42
2023/02/19 05:43:35;;;;;;;;;;;;;;;13.10;39.33;99918.13;5090732;28;20011;-42
2023/02/19 05:46:00;;;;;;;;;;;;;;;13.44;39.06;99917.88;5090878;28;19948;-41
2023/02/19 05:48:26;;;;;;;;;;;;;;;13.09;39.61;99929.81;5090548;28;20371;-42
2023/02/19 05:50:51;;;;;;;;;;;;;;;13.14;39.33;99918.50;5090743;28;19916;-43
2023/02/19 05:53:16;;;;;;;;;;;;;;;13.55;38.62;99921.72;5090535;28;19916;-43
2023/02/19 05:55:42;;;;;;;;;;;;;;;13.43;38.95;99926.97;5090673;28;20002;-42
2023/02/19 05:58:07;;;;;;;;;;;;;;;13.83;37.82;99931.97;5089986;28;19912;-43
2023/02/19 06:00:32;;;;;;;;;;;;;;;14.13;37.07;99929.41;5090271;28;19920;-43
2023/02/19 06:02:58;;;;;;;;;;;;;;;14.34;37.17;99938.84;5088986;28;19999;-43
2023/02/19 06:05:23;;;;;;;;;;;;;;;14.16;36.97;99936.97;5090640;28;20287;-43
2023/02/19 06:07:51;;;;;;;;;;;;;;;14.24;37.33;99946.56;5090274;28;19919;-42
2023/02/19 06:10:17;;;;;;;;;;;;;;;14.41;36.72;99961.03;5090450;28;19912;-43
2023/02/19 06:12:42;;;;;;;;;;;;;;;15.07;36.11;99969.28;5090357;28;19960;-43
2023/02/19 06:15:08;;;;;;;;;;;;;;;15.80;34.27;99957.47;5090483;28;20006;-43
2023/02/19 06:17:33;;;;;;;;;;;;;;;15.22;34.94;99971.56;5090376;28;19924;-43
2023/02/19 06:19:59;;;;;;;;;;;;;;;15.56;35.14;99975.38;5090079;28;19916;-43
2023/02/19 06:22:24;;;;;;;;;;;;;;;16.29;34.75;99976.00;5091391;28;20533;-43
2023/02/19 06:24:49;;;;;;;;;;;;;;;16.63;33.06;99978.06;5093650;28;19920;-43
2023/02/19 06:27:14;;;;;;;;;;;;;;;15.94;35.62;99978.72;5093974;28;19916;-43
2023/02/19 06:29:40;;;;;;;;;;;;;;;16.47;37.04;99982.28;5094295;28;20581;-44
2023/02/19 06:32:05;;;;;;;;;;;;;;;17.17;33.12;99981.28;5093720;28;19912;-43
2023/02/19 06:34:31;;;;;;;;;;;;;;;17.55;33.40;99990.53;5093016;28;19937;-43
2023/02/19 06:36:57;;;;;;;;;;;;;;;17.76;31.82;99989.84;5092488;28;19955;-43
2023/02/19 06:39:22;;;;;;;;;;;;;;;17.98;32.71;99986.44;5091101;28;19946;-43
2023/02/19 06:41:47;;;;;;;;;;;;;;;18.12;31.23;99984.19;5091202;28;19938;-43
2023/02/19 06:44:13;;;;;;;;;;;;;;;18.26;31.01;99992.72;5091417;28;20022;-42
2023/02/19 06:46:38;;;;;;;;;;;;;;;18.78;30.73;99989.63;5089583;28;19917;-42
2023/02/19 06:49:04;;;;;;;;;;;;;;;19.34;30.12;99995.69;5084024;28;19955;-44
2023/02/19 06:51:31;;;;;;;;;;;;;;;19.44;30.28;99994.13;5087185;28;19927;-42
2023/02/19 06:53:57;;;;;;;;;;;;;;;19.42;29.99;99990.88;5073796;28;19999;-42
2023/02/19 06:56:32;;;;;;;;;;;;;;;19.48;28.77;99997.97;5073204;28;20003;-42
2023/02/19 06:58:59;;;;;;;;;;;;;;;19.36;28.78;100005.38;5072826;28;19998;-42
2023/02/19 07:01:25;;;;;;;;;;;;;;;19.72;32.47;99999.28;5074404;28;20399;-40
2023/02/19 07:03:51;;;;;;;;;;;;;;;20.37;27.96;100009.97;5092582;28;19947;-41
2023/02/19 07:06:17;;;;;;;;;;;;;;;19.89;28.32;100006.41;5092835;28;20094;-41
2023/02/19 07:08:42;;;;;;;;;;;;;;;19.84;28.47;100001.00;5092413;28;20007;-37
2023/02/19 07:11:07;;;;;;;;;;;;;;;19.46;28.42;100006.31;5092563;28;19973;-35
2023/02/19 07:13:32;;;;;;;;;;;;;;;19.69;28.82;100005.16;5092959;28;20024;-37
2023/02/19 07:15:59;;;;;;;;;;;;;;;20.08;28.13;100007.63;5092975;28;20294;-37
2023/02/19 07:18:25;;;;;;;;;;;;;;;19.96;28.56;100003.50;5092648;28;19946;-36
2023/02/19 07:20:50;;;;;;;;;;;;;;;20.55;27.31;100008.72;5092119;28;20316;-36
2023/02/19 07:23:15;;;;;;;;;;;;;;;20.41;27.64;100012.94;5092158;28;19931;-37
2023/02/19 07:25:41;;;;;;;;;;;;;;;20.26;27.46;100011.00;5092722;28;19927;-36
2023/02/19 07:28:06;;;;;;;;;;;;;;;20.57;27.25;100011.97;5092342;28;19916;-36
2023/02/19 07:30:32;;;;;;;;;;;;;;;20.22;27.87;100012.56;5092264;28;19912;-35
2023/02/19 07:32:57;;;;;;;;;;;;;;;20.57;27.75;100000.34;5090624;28;20612;-35
2023/02/19 07:35:22;;;;;;;;;;;;;;;20.46;27.31;100008.38;5092032;28;20599;-36
2023/02/19 07:37:47;;;;;;;;;;;;;;;20.44;27.25;99998.94;5092038;28;20021;-36
2023/02/19 07:40:13;;;;;;;;;;;;;;;20.42;27.28;99995.66;5091762;28;19964;-35
2023/02/19 07:42:38;;;;;;;;;;;;;;;20.47;27.43;99993.81;5080338;28;19916;-35
2023/02/19 07:45:04;;;;;;;;;;;;;;;20.87;27.13;99999.69;5092145;28;19948;-35
2023/02/19 07:47:29;;;;;;;;;;;;;;;20.38;27.37;100003.50;5091923;28;19934;-36
2023/02/19 07:49:54;;;;;;;;;;;;;;;20.83;27.13;100004.00;5091769;28;19938;-36
2023/02/19 07:52:19;;;;;;;;;;;;;;;21.29;26.70;99998.72;5090918;28;20346;-36
2023/02/19 07:54:45;;;;;;;;;;;;;;;20.90;27.45;99993.72;5091834;28;19916;-36
2023/02/19 07:57:10;;;;;;;;;;;;;;;20.75;27.22;100005.31;5091876;28;19955;-36
2023/02/19 07:59:35;;;;;;;;;;;;;;;21.02;26.85;99994.31;5091833;28;19913;-36
2023/02/19 08:04:46;;;;;;;;;;;;;;;21.76;26.72;99997.69;5091934;28;19919;-36
2023/02/19 08:07:11;;;;;;;;;;;;;;;21.93;26.08;100005.50;5091632;28;19947;-41
2023/02/19 08:09:37;;;;;;;;;;;;;;;21.92;26.34;100000.38;5091650;28;19967;-36
2023/02/19 08:14:46;;;;;;;;;;;;;;;22.30;25.82;100001.69;5091299;28;19995;-36
2023/02/19 08:17:11;;;;;;;;;;;;;;;22.31;25.86;100005.22;5091539;28;19947;-36
2023/02/19 08:19:36;;;;;;;;;;;;;;;22.92;25.10;99999.53;5091156;28;20346;-36
2023/02/19 08:22:02;;;;;;;;;;;;;;;23.43;24.82;99990.31;5091077;28;19915;-35
2023/02/19 08:24:27;;;;;;;;;;;;;;;22.92;25.15;99985.19;5089951;28;20455;-37
2023/02/19 08:26:53;;;;;;;;;;;;;;;23.56;24.66;99992.38;5090765;28;19912;-37
2023/02/19 08:29:18;;;;;;;;;;;;;;;22.98;24.98;99973.19;5091064;28;20296;-37
2023/02/19 08:31:43;;;;;;;;;;;;;;;22.98;25.30;99974.03;5090424;28;20280;-35
2023/02/19 08:34:08;;;;;;;;;;;;;;;23.78;24.56;99975.66;5090265;28;19968;-41
2023/02/19 08:36:34;;;;;;;;;;;;;;;23.79;24.45;99966.41;5090691;28;19916;-41
2023/02/19 08:38:59;;;;;;;;;;;;;;;23.43;24.51;99974.81;5090508;28;20324;-41
2023/02/19 08:41:24;;;;;;;;;;;;;;;24.01;24.55;99965.13;5090594;28;20024;-41
2023/02/19 08:43:50;;;;;;;;;;;;;;;24.31;24.16;99966.72;5090169;28;19954;-40
2023/02/19 08:46:15;;;;;;;;;;;;;;;23.85;24.30;99958.22;5090143;28;20002;-40
2023/02/19 08:48:40;;;;;;;;;;;;;;;23.90;24.40;99969.84;5081173;28;19917;-40
2023/02/19 08:51:07;;;;;;;;;;;;;;;23.61;24.41;99969.81;5079598;28;20013;-41
2023/02/19 08:53:33;;;;;;;;;;;;;;;23.91;24.48;99963.31;5080524;28;19912;-41
2023/02/19 08:56:03;;;;;;;;;;;;;;;23.57;24.73;99966.84;5078360;28;19963;-41
2023/02/19 08:58:28;;;;;;;;;;;;;;;22.61;25.79;99960.91;5079026;28;19918;-41
2023/02/19 09:00:54;;;;;;;;;;;;;;;22.43;25.88;99963.16;5080606;28;20003;-41
2023/02/19 09:03:19;;;;;;;;;;;;;;;22.41;26.34;99959.13;5079555;28;19912;-41
2023/02/19 09:05:45;;;;;;;;;;;;;;;22.69;26.13;99956.81;5079747;28;19927;-40
2023/02/19 09:08:11;;;;;;;;;;;;;;;22.31;26.58;99945.56;5090067;28;19996;-41
2023/02/19 09:10:36;;;;;;;;;;;;;;;22.57;26.48;99946.28;5082200;28;19974;-41
2023/02/19 09:13:02;;;;;;;;;;;;;;;23.52;25.58;99947.88;5078082;28;19920;-41
2023/02/19 09:15:28;;;;;;;;;;;;;;;23.61;25.47;99946.19;5080316;28;20006;-40
2023/02/19 09:17:54;;;;;;;;;;;;;;;24.35;24.85;99942.44;5079651;28;20008;-41
2023/02/19 09:20:19;;;;;;;;;;;;;;;24.43;24.37;99940.97;5078464;28;20014;-41
2023/02/19 09:22:45;;;;;;;;;;;;;;;24.20;24.78;99935.28;5080078;28;19931;-42
2023/02/19 09:25:10;;;;;;;;;;;;;;;24.90;24.05;99926.53;5080008;28;20411;-40
2023/02/19 09:27:35;;;;;;;;;;;;;;;24.10;25.06;99922.59;5079846;28;20324;-41
2023/02/19 09:30:00;;;;;;;;;;;;;;;24.33;24.82;99922.88;5078936;28;19928;-40
2023/02/19 09:32:28;;;;;;;;;;;;;;;24.48;24.67;99928.13;5076185;28;20466;-42
2023/02/19 09:34:54;;;;;;;;;;;;;;;23.92;25.23;99929.59;5080187;28;19950;-41
2023/02/19 09:37:19;;;;;;;;;;;;;;;24.12;24.96;99920.44;5090043;28;20030;-41
2023/02/19 09:39:44;;;;;;;;;;;;;;;24.89;24.49;99916.72;5089886;28;19916;-41
2023/02/19 09:42:18;;;;;;;;;;;;;;;24.54;24.55;99918.84;5090035;28;19916;-42
2023/02/19 09:44:46;;;;;;;;;;;;;;;24.84;24.13;99916.78;5090022;28;20321;-44
2023/02/19 09:47:15;;;;;;;;;;;;;;;24.93;24.11;99909.59;5090018;28;19923;-41
2023/02/19 09:49:48;;;;;;;;;;;;;;;24.88;23.86;99909.66;5089888;28;19934;-42
2023/02/19 09:52:13;;;;;;;;;;;;;;;23.95;25.02;99898.31;5090277;28;19912;-41
2023/02/19 09:54:39;;;;;;;;;;;;;;;24.22;24.31;99892.31;5090006;28;19922;-42
2023/02/19 09:57:10;;;;;;;;;;;;;;;24.81;23.90;99894.81;5093805;28;20027;-42
2023/02/19 09:59:39;;;;;;;;;;;;;;;24.55;23.86;99876.94;5092662;28;19916;-41
2023/02/19 10:02:13;;;;;;;;;;;;;;;25.22;22.97;99875.13;5073761;28;20448;-41
2023/02/19 10:04:42;;;;;;;;;;;;;;;25.14;23.15;99877.41;5073664;28;20030;-42
2023/02/19 10:07:15;;;;;;;;;;;;;;;24.93;23.39;99868.75;5085132;28;19918;-41
2023/02/19 10:09:40;;;;;;;;;;;;;;;24.64;23.93;99866.22;5093188;28;19912;-43
2023/02/19 10:12:21;;;;;;;;;;;;;;;25.23;23.25;99863.97;5093258;28;20344;-41
2023/02/19 10:14:51;;;;;;;;;;;;;;;24.95;23.82;99872.00;5093591;28;19916;-41
2023/02/19 10:17:21;;;;;;;;;;;;;;;24.26;24.18;99862.63;5093569;28;19951;-40
2023/02/19 10:19:46;;;;;;;;;;;;;;;24.03;24.61;99856.94;5092934;28;20014;-41
2023/02/19 10:22:12;;;;;;;;;;;;;;;24.32;24.72;99858.75;5087734;28;20012;-41
2023/02/19 10:24:40;;;;;;;;;;;;;;;24.43;24.14;99848.53;5073028;28;19924;-41
2023/02/19 10:27:10;;;;;;;;;;;;;;;25.17;23.48;99841.44;5072960;28;19923;-41
2023/02/19 10:29:35;;;;;;;;;;;;;;;24.45;24.18;99841.69;5073480;28;19940;-41
2023/02/19 10:32:17;;;;;;;;;;;;;;;24.53;24.34;99830.19;5076950;28;19912;-42
2023/02/19 10:34:42;;;;;;;;;;;;;;;24.31;24.34;99829.91;5092075;28;19912;-40
2023/02/19 10:37:11;;;;;;;;;;;;;;;23.87;24.84;99820.97;5093404;28;19912;-40
2023/02/19 10:39:40;;;;;;;;;;;;;;;24.07;24.14;99821.81;5093195;28;20007;-40
2023/02/19 10:42:12;;;;;;;;;;;;;;;24.69;23.61;99809.00;5092836;28;19927;-41
2023/02/19 10:44:42;;;;;;;;;;;;;;;24.76;24.03;99814.88;5093048;28;19947;-40
2023/02/19 10:47:13;;;;;;;;;;;;;;;25.07;23.83;99798.03;5085223;28;19948;-40
2023/02/19 10:49:39;;;;;;;;;;;;;;;24.39;24.50;99800.16;5072901;28;19912;-40
2023/02/19 10:52:16;;;;;;;;;;;;;;;24.50;23.79;99781.81;5072350;28;20445;-41
2023/02/19 10:54:43;;;;;;;;;;;;;;;24.65;23.57;99774.53;5072895;28;19916;-41
2023/02/19 10:57:14;;;;;;;;;;;;;;;24.50;23.72;99780.97;5072807;28;19912;-40
2023/02/19 10:59:48;;;;;;;;;;;;;;;24.88;23.20;99783.66;5072326;28;20343;-40
2023/02/19 11:02:20;;;;;;;;;;;;;;;24.69;23.42;99770.09;5090151;28;20248;-41
2023/02/19 11:05:04;;;;;;;;;;;;;;;24.79;23.50;99764.50;5092220;28;19920;-41
2023/02/19 11:07:29;;;;;;;;;;;;;;;25.20;23.00;99755.63;5092834;28;19969;-41
2023/02/19 11:09:55;;;;;;;;;;;;;;;24.46;23.77;99755.47;5092872;28;19916;-41
2023/02/19 11:12:28;;;;;;;;;;;;;;;24.93;23.16;99748.22;5092447;28;19912;-40
2023/02/19 11:14:54;;;;;;;;;;;;;;;25.16;22.76;99749.97;5092523;28;20483;-41
2023/02/19 11:17:21;;;;;;;;;;;;;;;25.22;22.86;99742.50;5092995;28;19912;-41
2023/02/19 11:19:50;;;;;;;;;;;;;;;24.96;23.21;99750.34;5092532;28;20391;-40
2023/02/19 11:22:21;;;;;;;;;;;;;;;25.75;22.36;99752.13;5092425;28;19916;-41
2023/02/19 11:24:48;;;;;;;;;;;;;;;25.09;23.01;99746.00;5092026;28;19919;-41
2023/02/19 11:27:17;;;;;;;;;;;;;;;25.14;23.05;99740.50;5091867;28;19912;-41
2023/02/19 11:29:42;;;;;;;;;;;;;;;25.29;23.00;99740.22;5091765;28;19927;-41
2023/02/19 11:32:17;;;;;;;;;;;;;;;25.43;22.60;99733.97;5091785;28;19912;-42
2023/02/19 11:34:42;;;;;;;;;;;;;;;24.94;22.89;99739.75;5091829;28;19912;-41
2023/02/19 11:37:12;;;;;;;;;;;;;;;24.71;23.20;99727.91;5091956;28;19919;-40
2023/02/19 11:39:39;;;;;;;;;;;;;;;25.02;22.76;99727.38;5092085;28;19912;-40
2023/02/19 11:42:04;;;;;;;;;;;;;;;25.34;23.36;99726.53;5091577;28;19924;-41
2023/02/19 11:44:35;;;;;;;;;;;;;;;25.31;22.42;99720.88;5091869;28;19916;-41
2023/02/19 11:47:20;;;;;;;;;;;;;;;24.68;23.43;99723.06;5091520;28;19912;-41
2023/02/19 11:49:49;;;;;;;;;;;;;;;24.89;23.28;99722.72;5091803;28;19933;-41
2023/02/19 11:52:32;;;;;;;;;;;;;;;25.32;22.76;99706.97;5091326;28;19912;-41
2023/02/19 11:55:05;;;;;;;;;;;;;;;25.24;22.62;99709.56;5091723;28;19938;-40
2023/02/19 11:57:40;;;;;;;;;;;;;;;25.47;23.14;99705.03;5091181;28;20304;-42
2023/02/19 12:00:11;;;;;;;;;;;;;;;25.58;22.18;99692.81;5091334;28;19923;-41
2023/02/19 12:02:39;;;;;;;;;;;;;;;25.99;21.92;99688.41;5091465;28;19915;-41
2023/02/19 12:05:25;;;;;;;;;;;;;;;25.83;21.77;99683.25;5091301;28;20010;-41
2023/02/19 12:08:06;;;;;;;;;;;;;;;26.54;21.35;99685.47;5091180;28;19912;-41
2023/02/19 12:10:46;;;;;;;;;;;;;;;26.65;21.38;99677.84;5091282;28;19969;-40
2023/02/19 12:13:28;;;;;;;;;;;;;;;25.90;21.85;99677.41;5091131;28;19969;-41
2023/02/19 12:16:19;;;;;;;;;;;;;;;26.39;21.70;99675.75;5091246;28;20003;-41
2023/02/19 12:18:51;;;;;;;;;;;;;;;26.82;21.24;99674.41;5089775;28;20272;-41
2023/02/19 12:21:23;;;;;;;;;;;;;;;26.54;21.27;99663.63;5090654;28;19920;-41
2023/02/19 12:24:06;;;;;;;;;;;;;;;27.28;21.02;99648.56;5090666;28;19981;-41
2023/02/19 12:26:37;;;;;;;;;;;;;;;27.15;20.72;99650.28;5091025;28;19912;-43
2023/02/19 12:29:21;;;;;;;;;;;;;;;26.46;21.22;99654.25;5090508;28;19959;-42
2023/02/19 12:31:49;;;;;;;;;;;;;;;27.05;21.90;99650.56;5090891;28;19969;-42
2023/02/19 12:34:17;;;;;;;;;;;;;;;27.39;20.69;99641.69;5090946;28;19912;-42
2023/02/19 12:36:45;;;;;;;;;;;;;;;27.14;20.77;99636.94;5090796;28;19947;-42
2023/02/19 12:39:24;;;;;;;;;;;;;;;27.35;20.77;99634.47;5090248;28;20022;-41
2023/02/19 12:41:58;;;;;;;;;;;;;;;27.71;20.29;99625.19;5090273;28;20006;-42
2023/02/19 12:44:32;;;;;;;;;;;;;;;27.84;20.04;99616.81;5090695;28;19916;-42
2023/02/19 12:47:00;;;;;;;;;;;;;;;27.35;20.75;99609.88;5090510;28;19912;-41
2023/02/19 12:49:25;;;;;;;;;;;;;;;26.66;21.39;99600.31;5090579;28;19912;-42
2023/02/19 12:51:56;;;;;;;;;;;;;;;27.18;20.91;99605.16;5090437;28;19919;-42
2023/02/19 12:54:34;;;;;;;;;;;;;;;27.42;20.72;99599.28;5091001;28;19912;-41
2023/02/19 12:57:02;;;;;;;;;;;;;;;27.12;20.85;99596.31;5090678;28;19922;-42
2023/02/19 12:59:46;;;;;;;;;;;;;;;26.91;20.94;99590.63;5090517;28;19977;-41
2023/02/19 13:02:18;;;;;;;;;;;;;;;27.44;20.63;99592.38;5090177;28;19919;-41
2023/02/19 13:04:49;;;;;;;;;;;;;;;27.63;20.56;99589.34;5090648;28;19923;-42
2023/02/19 13:07:21;;;;;;;;;;;;;;;26.57;21.00;99586.59;5082778;28;20022;-42
2023/02/19 13:10:05;;;;;;;;;;;;;;;26.76;21.16;99580.13;5080345;28;19975;-41
2023/02/19 13:12:35;;;;;;;;;;;;;;;27.48;20.39;99576.16;5089813;28;19912;-41
2023/02/19 13:15:13;;;;;;;;;;;;;;;27.52;20.41;99566.19;5089976;28;19954;-41